Time;durP1;ratioP1;P1;durP2;ratioP2;P2;SDS_P1;SDS_P2;PMS_P1;PMS_P2;Temp;Humidity;BMP_temperature;BMP_pressure;BME280_temperature;BME280_humidity;BME280_pressure;Samples;Min_cycle;Max_cycle;Signal;HPM_P1;HPM_P2
2022/02/09 00:01:58;;;;;;;3.67;1.13;;;24.50;40.70;;;;;;5036469;28;20045;-51
2022/02/09 00:04:31;;;;;;;8.00;2.17;;;24.60;40.70;;;;;;5040734;28;20756;-47
2022/02/09 00:07:09;;;;;;;6.00;2.13;;;24.60;40.60;;;;;;5042421;28;20048;-49
2022/02/09 00:09:37;;;;;;;20.73;3.20;;;24.60;40.70;;;;;;5039450;28;20525;-55
2022/02/09 00:12:08;;;;;;;14.38;2.15;;;24.60;40.70;;;;;;5039669;28;20690;-46
2022/02/09 00:14:46;;;;;;;11.13;2.38;;;24.60;40.90;;;;;;5044059;28;20855;-46
2022/02/09 00:17:33;;;;;;;5.40;1.92;;;24.70;40.70;;;;;;5043627;28;20049;-50
2022/02/09 00:20:24;;;;;;;5.72;1.95;;;24.70;40.60;;;;;;5037696;28;20124;-47
2022/02/09 00:34:19;;;;;;;7.78;3.38;;;24.90;39.80;;;;;;4926227;29;20050;-57
2022/02/09 00:40:05;;;;;;;7.68;2.53;;;24.90;39.80;;;;;;4830139;29;20076;-56
2022/02/09 01:57:46;;;;;;;2.15;1.50;;;24.10;42.20;;;;;;5013924;28;20307;-58
2022/02/09 02:00:15;;;;;;;1.95;1.10;;;24.10;42.20;;;;;;5035603;28;20060;-53
2022/02/09 02:02:42;;;;;;;3.65;1.73;;;24.10;42.20;;;;;;5040587;28;20041;-58
2022/02/09 02:05:10;;;;;;;5.45;1.40;;;24.10;42.20;;;;;;5041199;28;20616;-57
2022/02/09 02:07:46;;;;;;;4.38;1.40;;;24.00;42.20;;;;;;5039246;28;20037;-58
2022/02/09 02:10:15;;;;;;;2.65;1.08;;;24.10;42.20;;;;;;5034524;28;20040;-58
2022/02/09 02:13:00;;;;;;;1.30;1.15;;;24.00;42.20;;;;;;5038612;28;20892;-58
2022/02/09 02:18:15;;;;;;;1.75;1.60;;;24.00;42.20;;;;;;5034579;28;20041;-59
2022/02/09 02:20:53;;;;;;;1.95;1.73;;;24.00;42.20;;;;;;5039531;28;20037;-58
2022/02/09 02:23:36;;;;;;;2.22;0.85;;;24.00;42.20;;;;;;5041054;28;20051;-59
2022/02/09 02:26:15;;;;;;;2.42;1.58;;;24.00;42.20;;;;;;5040544;28;20620;-59
2022/02/09 02:28:56;;;;;;;1.92;1.05;;;24.00;42.20;;;;;;5039548;28;20545;-59
2022/02/09 02:31:51;;;;;;;1.25;1.08;;;24.00;42.20;;;;;;5035362;28;20045;-59
2022/02/09 02:34:53;;;;;;;3.20;1.02;;;23.90;42.10;;;;;;5039253;28;20065;-60
2022/02/09 02:57:08;;;;;;;1.67;0.85;;;23.80;42.10;;;;;;4953939;28;20051;-58
2022/02/09 02:59:44;;;;;;;1.17;1.02;;;23.80;42.10;;;;;;4955186;28;20042;-58
2022/02/09 03:10:53;;;;;;;7.78;4.20;;;23.80;42.30;;;;;;4950282;28;20070;-58
2022/02/09 03:13:25;;;;;;;11.23;6.20;;;23.80;42.20;;;;;;4954584;28;20431;-58
2022/02/09 03:15:58;;;;;;;10.80;6.32;;;23.80;42.20;;;;;;4959521;28;20774;-58
2022/02/09 03:21:17;;;;;;;7.10;5.85;;;23.80;42.10;;;;;;4953303;28;20762;-59
2022/02/09 03:23:48;;;;;;;7.68;4.38;;;23.80;42.00;;;;;;4992306;28;20042;-58
2022/02/09 03:42:57;;;;;;;4.68;3.10;;;23.70;41.60;;;;;;5040960;28;20037;-60
2022/02/09 03:45:57;;;;;;;5.10;2.72;;;23.70;41.50;;;;;;5039558;28;20037;-60
2022/02/09 03:48:46;;;;;;;9.20;3.38;;;23.70;41.40;;;;;;5041752;28;20513;-60
2022/02/09 03:51:41;;;;;;;2.97;2.65;;;23.70;41.40;;;;;;5036142;28;20037;-60
2022/02/09 03:54:16;;;;;;;5.75;3.83;;;23.70;41.40;;;;;;5042824;28;20110;-60
2022/02/09 03:59:24;;;;;;;4.30;2.58;;;23.60;41.20;;;;;;5038375;28;20049;-60
2022/02/09 04:01:53;;;;;;;6.25;2.78;;;23.60;41.20;;;;;;5039441;28;20099;-60
2022/02/09 04:04:20;;;;;;;5.63;2.42;;;23.70;41.20;;;;;;5043047;28;20055;-61
2022/02/09 04:06:50;;;;;;;4.65;2.90;;;23.70;41.20;;;;;;5043090;28;20505;-59
2022/02/09 04:09:20;;;;;;;6.07;2.75;;;23.60;41.10;;;;;;5041762;28;20049;-60
2022/02/09 04:11:53;;;;;;;1.83;1.45;;;23.60;41.10;;;;;;5039835;28;20041;-59
2022/02/09 04:14:28;;;;;;;3.35;2.15;;;23.60;41.10;;;;;;5043289;28;20041;-59
2022/02/09 04:17:11;;;;;;;3.75;2.67;;;23.60;41.10;;;;;;5040840;28;20056;-58
2022/02/09 04:19:48;;;;;;;2.65;1.50;;;23.60;41.00;;;;;;5039176;28;21553;-58
2022/02/09 04:36:21;;;;;;;1.35;1.13;;;23.50;40.90;;;;;;4903732;29;20520;-59
2022/02/09 04:38:55;;;;;;;4.50;1.95;;;23.50;40.90;;;;;;4902395;29;20047;-57
2022/02/09 04:44:24;;;;;;;1.23;1.00;;;23.50;40.80;;;;;;4898440;29;20096;-58
2022/02/09 04:52:36;;;;;;;2.22;1.70;;;23.50;40.80;;;;;;4899546;29;20548;-59
2022/02/09 04:55:22;;;;;;;2.85;1.63;;;23.40;40.70;;;;;;4883841;29;20106;-57
2022/02/09 04:57:52;;;;;;;1.85;0.80;;;23.40;40.70;;;;;;4902401;29;20134;-58
2022/02/09 05:00:29;;;;;;;2.33;1.48;;;23.40;40.60;;;;;;4896130;29;20063;-58
2022/02/09 05:03:31;;;;;;;3.67;1.40;;;23.40;40.60;;;;;;4990252;28;20041;-58
2022/02/09 05:20:50;;;;;;;1.90;1.48;;;23.30;40.40;;;;;;4994385;28;20723;-59
2022/02/09 05:25:44;;;;;;;1.38;0.70;;;23.30;40.50;;;;;;4978504;28;20049;-57
2022/02/09 05:28:14;;;;;;;3.00;1.30;;;23.30;40.50;;;;;;4998558;28;20049;-59
2022/02/09 05:30:44;;;;;;;3.55;1.02;;;23.30;40.50;;;;;;4979411;28;20088;-59
2022/02/09 05:33:11;;;;;;;1.77;1.15;;;23.30;40.50;;;;;;4996906;28;20057;-59
2022/02/09 05:35:42;;;;;;;2.10;1.85;;;23.30;40.50;;;;;;4981354;28;20044;-59
2022/02/09 05:38:11;;;;;;;2.05;0.82;;;23.30;40.50;;;;;;4983208;28;20049;-57
2022/02/09 05:40:39;;;;;;;3.70;0.68;;;23.20;40.40;;;;;;4992946;28;20052;-58
2022/02/09 05:43:07;;;;;;;3.17;2.00;;;23.20;40.40;;;;;;5023731;28;20041;-59
2022/02/09 05:45:48;;;;;;;1.27;1.00;;;23.20;40.40;;;;;;5040974;28;20111;-58
2022/02/09 05:51:05;;;;;;;2.58;1.05;;;23.20;40.30;;;;;;4994078;28;20522;-60
2022/02/09 05:53:54;;;;;;;4.57;1.27;;;23.20;40.30;;;;;;4999294;28;20637;-57
2022/02/09 05:56:34;;;;;;;1.73;0.52;;;23.20;40.30;;;;;;4997611;28;20473;-56
2022/02/09 05:59:05;;;;;;;3.33;1.13;;;23.10;40.20;;;;;;4997821;28;20046;-57
2022/02/09 06:01:33;;;;;;;3.47;0.93;;;23.10;40.20;;;;;;4993242;28;20581;-57
2022/02/09 06:04:00;;;;;;;1.27;1.17;;;23.10;40.20;;;;;;4997895;28;20053;-59
2022/02/09 06:06:28;;;;;;;1.83;0.98;;;23.20;40.20;;;;;;4997834;28;20121;-57
2022/02/09 06:08:57;;;;;;;1.17;0.63;;;23.10;40.20;;;;;;4998744;28;20144;-57
2022/02/09 06:11:27;;;;;;;2.00;0.52;;;23.10;40.10;;;;;;4994146;28;20532;-55
2022/02/09 06:14:19;;;;;;;1.88;1.00;;;23.10;40.10;;;;;;4998218;28;20052;-60
2022/02/09 06:22:21;;;;;;;3.20;0.82;;;23.10;40.10;;;;;;4841425;29;20069;-56
2022/02/09 06:24:50;;;;;;;0.80;0.80;;;23.10;40.10;;;;;;4843986;29;20097;-57
2022/02/09 06:27:17;;;;;;;3.60;0.95;;;23.10;40.10;;;;;;4843301;29;20054;-57
2022/02/09 06:29:47;;;;;;;1.23;0.60;;;23.10;40.10;;;;;;4898253;29;20168;-56
2022/02/09 06:32:15;;;;;;;0.63;0.63;;;23.10;40.00;;;;;;4898678;29;20052;-56
2022/02/09 06:34:43;;;;;;;1.45;0.63;;;23.10;40.00;;;;;;4899090;29;20048;-57
2022/02/09 06:37:17;;;;;;;4.00;0.98;;;23.10;40.00;;;;;;4899476;29;20036;-59
2022/02/09 06:39:47;;;;;;;5.18;0.65;;;23.10;39.90;;;;;;4897015;29;20064;-57
2022/02/09 06:42:22;;;;;;;4.90;1.85;;;23.00;39.90;;;;;;4897447;29;20056;-59
2022/02/09 06:44:49;;;;;;;1.58;0.70;;;23.10;39.90;;;;;;4899646;29;20454;-57
2022/02/09 06:47:18;;;;;;;2.40;1.30;;;23.10;39.90;;;;;;4900521;29;20635;-59
2022/02/09 06:49:49;;;;;;;2.13;0.85;;;23.00;39.80;;;;;;4898498;29;20060;-58
2022/02/09 06:52:17;;;;;;;3.08;1.00;;;23.00;39.80;;;;;;4897909;29;20044;-55
2022/02/09 06:54:55;;;;;;;3.63;1.13;;;23.00;39.80;;;;;;4900803;29;20077;-60
2022/02/09 06:57:33;;;;;;;1.33;0.95;;;23.00;39.80;;;;;;4954041;28;20623;-59
2022/02/09 07:00:00;;;;;;;0.75;0.50;;;23.00;39.80;;;;;;5036260;28;20183;-59
2022/02/09 07:02:27;;;;;;;1.88;0.50;;;23.00;39.80;;;;;;5038982;28;20047;-61
2022/02/09 07:04:55;;;;;;;4.00;1.40;;;23.00;39.80;;;;;;5037405;28;20045;-61
2022/02/09 07:07:22;;;;;;;2.15;1.25;;;23.00;39.70;;;;;;5037088;28;20106;-59
2022/02/09 07:09:49;;;;;;;2.25;0.95;;;23.00;39.70;;;;;;5036186;28;20107;-59
2022/02/09 07:12:18;;;;;;;3.15;1.00;;;23.00;39.70;;;;;;5037637;28;20047;-60
2022/02/09 07:14:48;;;;;;;1.60;0.47;;;23.00;39.80;;;;;;5038694;28;20041;-60
2022/02/09 07:17:15;;;;;;;2.13;0.70;;;22.90;39.70;;;;;;5041259;28;20092;-60
2022/02/09 07:19:46;;;;;;;1.52;0.60;;;22.90;39.70;;;;;;5037417;28;20876;-58
2022/02/09 07:22:22;;;;;;;3.67;0.90;;;22.90;39.60;;;;;;5037893;28;20045;-60
2022/02/09 07:24:51;;;;;;;2.13;1.00;;;22.90;39.60;;;;;;5036547;28;20041;-59
2022/02/09 07:27:27;;;;;;;2.35;0.77;;;22.90;40.20;;;;;;5039639;28;20122;-60
2022/02/09 07:29:57;;;;;;;5.65;1.00;;;22.90;40.20;;;;;;5042713;28;20122;-57
2022/02/09 07:32:24;;;;;;;0.70;0.70;;;22.90;40.10;;;;;;5045460;28;20112;-57
2022/02/09 07:34:51;;;;;;;1.83;0.63;;;22.80;40.40;;;;;;5042408;28;20119;-59
2022/02/09 07:37:18;;;;;;;12.43;1.23;;;22.60;40.70;;;;;;5042607;28;20047;-53
2022/02/09 07:39:45;;;;;;;16.45;2.00;;;22.50;41.10;;;;;;5038462;28;20052;-53
2022/02/09 07:42:20;;;;;;;14.38;2.03;;;22.30;41.50;;;;;;5043807;28;20044;-55
2022/02/09 07:44:58;;;;;;;28.92;1.35;;;22.20;41.90;;;;;;5043972;28;20041;-49
2022/02/09 07:47:44;;;;;;;13.45;2.55;;;22.10;42.20;;;;;;5045521;28;20054;-56
2022/02/09 07:50:31;;;;;;;23.55;1.25;;;22.00;42.60;;;;;;5044192;28;20041;-58
2022/02/09 07:53:08;;;;;;;9.50;1.10;;;21.90;43.10;;;;;;5038374;28;20048;-60
2022/02/09 07:55:36;;;;;;;8.60;1.80;;;21.80;43.40;;;;;;5044137;28;20041;-59
2022/02/09 07:58:04;;;;;;;6.25;0.80;;;21.70;43.70;;;;;;5042590;28;20127;-60
2022/02/09 08:00:31;;;;;;;4.43;0.70;;;21.60;43.90;;;;;;5039050;28;20806;-60
2022/02/09 08:03:01;;;;;;;12.50;1.58;;;21.50;44.00;;;;;;5046731;28;20573;-60
2022/02/09 08:05:29;;;;;;;2.30;1.40;;;21.50;44.30;;;;;;5043661;28;20080;-61
2022/02/09 08:07:56;;;;;;;5.70;2.22;;;21.40;44.40;;;;;;5040978;28;20509;-60
2022/02/09 08:10:28;;;;;;;4.40;0.85;;;21.40;44.60;;;;;;5041492;28;20055;-61
2022/02/09 08:24:32;;;;;;;2.35;1.13;;;21.10;44.90;;;;;;4979419;28;19984;-61
2022/02/09 08:27:18;;;;;;;3.13;0.80;;;21.00;45.30;;;;;;4965617;28;20046;-56
2022/02/09 08:29:48;;;;;;;3.60;0.85;;;21.00;45.50;;;;;;4982908;28;20050;-60
2022/02/09 08:35:11;;;;;;;6.00;0.52;;;20.90;45.80;;;;;;4959612;28;20043;-57
2022/02/09 08:37:39;;;;;;;3.80;1.25;;;20.90;46.00;;;;;;4957844;28;20124;-56
2022/02/09 08:40:09;;;;;;;5.57;1.00;;;20.90;46.10;;;;;;4960845;28;20205;-59
2022/02/09 08:42:38;;;;;;;4.22;0.90;;;20.80;46.10;;;;;;4960500;28;20042;-59
2022/02/09 08:45:06;;;;;;;6.80;0.80;;;20.80;46.10;;;;;;4963015;28;20048;-59
2022/02/09 08:47:33;;;;;;;6.93;0.85;;;20.80;46.10;;;;;;4952465;28;20409;-59
2022/02/09 08:50:01;;;;;;;5.20;1.08;;;20.80;46.10;;;;;;4952622;28;20047;-59
2022/02/09 08:52:29;;;;;;;9.40;1.45;;;20.80;46.10;;;;;;4969878;28;20053;-58
2022/02/09 08:54:57;;;;;;;7.60;0.80;;;20.80;46.20;;;;;;4985545;28;20038;-58
2022/02/09 08:57:25;;;;;;;3.78;1.40;;;20.70;46.10;;;;;;5001627;28;20058;-59
2022/02/09 08:59:52;;;;;;;6.47;1.08;;;20.70;46.20;;;;;;5001758;28;20053;-59
2022/02/09 09:02:23;;;;;;;4.47;1.20;;;20.70;46.20;;;;;;5005278;28;20132;-59
2022/02/09 09:04:53;;;;;;;2.47;0.93;;;20.70;46.20;;;;;;5002981;28;20069;-58
2022/02/09 09:07:25;;;;;;;3.50;1.10;;;20.70;46.20;;;;;;4997881;28;20042;-59
2022/02/09 09:10:06;;;;;;;2.83;1.10;;;20.60;46.10;;;;;;5004965;28;20522;-58
2022/02/09 09:16:42;;;;;;;2.67;1.38;;;20.60;46.10;;;;;;5046229;28;20444;-59
2022/02/09 10:03:25;;;;;;;16.30;3.42;;;20.40;45.70;;;;;;4925952;29;20599;-59
2022/02/09 10:31:21;;;;;;;8.95;1.40;;;20.50;45.30;;;;;;4891714;29;20119;-59
2022/02/09 10:33:55;;;;;;;7.25;1.48;;;20.50;45.20;;;;;;4908493;29;20167;-58
2022/02/09 10:36:23;;;;;;;6.43;2.05;;;20.50;45.10;;;;;;4925209;29;20047;-59
2022/02/09 10:39:03;;;;;;;5.22;1.75;;;20.60;45.10;;;;;;4925555;29;20052;-58
2022/02/09 10:41:36;;;;;;;6.88;2.00;;;20.60;45.10;;;;;;4920129;29;20048;-59
2022/02/09 10:44:06;;;;;;;4.50;1.73;;;20.60;45.00;;;;;;4924750;29;20058;-59
2022/02/09 10:46:34;;;;;;;5.65;1.98;;;20.60;44.90;;;;;;4924873;28;20044;-59
2022/02/09 10:49:10;;;;;;;4.22;1.30;;;20.70;44.90;;;;;;4925086;29;20059;-59
2022/02/09 10:51:42;;;;;;;13.70;2.88;;;20.80;44.70;;;;;;4925529;29;20044;-59
2022/02/09 10:54:13;;;;;;;3.25;1.60;;;20.80;44.60;;;;;;4955622;28;20057;-59
2022/02/09 10:56:41;;;;;;;3.65;1.95;;;20.90;44.50;;;;;;4984656;28;20095;-59
2022/02/09 10:59:10;;;;;;;5.43;1.88;;;20.90;44.30;;;;;;4983779;28;20577;-59
2022/02/09 11:01:39;;;;;;;5.85;1.98;;;21.00;44.20;;;;;;4983919;28;20145;-59
2022/02/09 11:04:09;;;;;;;4.35;1.95;;;21.00;44.20;;;;;;4984346;28;20043;-61
2022/02/09 11:06:40;;;;;;;5.93;2.10;;;21.10;44.10;;;;;;5042613;28;20053;-59
2022/02/09 11:09:09;;;;;;;3.05;1.05;;;21.20;44.00;;;;;;5044035;28;20049;-60
2022/02/09 11:11:39;;;;;;;2.05;1.45;;;21.20;43.90;;;;;;5046569;28;20037;-60
2022/02/09 11:14:10;;;;;;;9.13;1.95;;;21.20;43.80;;;;;;5044985;28;20056;-61
2022/02/09 11:16:37;;;;;;;2.88;1.58;;;21.30;43.70;;;;;;5044844;28;20114;-59
2022/02/09 11:19:05;;;;;;;7.43;1.85;;;21.30;43.70;;;;;;5044675;28;20505;-59
2022/02/09 11:21:37;;;;;;;8.52;2.42;;;21.40;43.60;;;;;;5045138;28;20045;-60
2022/02/09 11:24:16;;;;;;;4.20;1.08;;;21.40;43.50;;;;;;5043338;28;20071;-60
2022/02/09 11:26:50;;;;;;;3.03;1.80;;;21.50;43.40;;;;;;5043832;28;20041;-60
2022/02/09 11:29:45;;;;;;;8.98;2.08;;;21.50;43.40;;;;;;5043614;28;20413;-60
2022/02/09 11:32:40;;;;;;;4.22;1.60;;;21.50;43.30;;;;;;5043026;28;20064;-60
2022/02/09 11:35:41;;;;;;;6.22;2.03;;;21.60;43.30;;;;;;5042252;28;20635;-60
2022/02/09 11:38:25;;;;;;;7.15;1.50;;;21.70;43.20;;;;;;5042512;28;20041;-60
2022/02/09 11:41:05;;;;;;;1.15;0.90;;;21.60;43.10;;;;;;5041490;28;20139;-60
2022/02/09 11:43:39;;;;;;;3.30;1.63;;;21.70;43.10;;;;;;5042070;28;20505;-60
2022/02/09 11:46:26;;;;;;;2.10;1.50;;;21.80;43.60;;;;;;5041786;28;20048;-60
2022/02/09 12:10:26;;;;;;;2.70;1.15;;;22.20;42.60;;;;;;5046314;28;20667;-60
2022/02/09 12:13:03;;;;;;;3.38;1.77;;;22.20;42.50;;;;;;5044688;28;20045;-59
2022/02/09 12:18:37;;;;;;;3.78;2.13;;;22.30;42.40;;;;;;5046156;28;20052;-58
2022/02/09 12:21:15;;;;;;;6.57;2.33;;;22.40;42.50;;;;;;5048163;28;20052;-58
2022/02/09 12:23:46;;;;;;;5.28;2.55;;;22.40;42.40;;;;;;5046864;28;20041;-61
2022/02/09 12:26:17;;;;;;;4.32;2.38;;;22.50;42.40;;;;;;5048458;28;20091;-60
2022/02/09 12:28:53;;;;;;;5.03;2.80;;;22.50;42.90;;;;;;5047819;28;20128;-59
2022/02/09 12:31:23;;;;;;;3.78;3.28;;;22.60;42.30;;;;;;5047469;28;20118;-60
2022/02/09 12:33:51;;;;;;;5.70;3.15;;;22.60;42.20;;;;;;5047837;28;20052;-60
2022/02/09 12:36:20;;;;;;;6.57;4.15;;;22.70;42.20;;;;;;5047688;28;20044;-60
2022/02/09 12:38:49;;;;;;;5.68;2.50;;;22.70;42.10;;;;;;5048242;28;20061;-60
2022/02/09 12:41:21;;;;;;;5.90;3.22;;;22.80;42.10;;;;;;5047923;28;20052;-60
2022/02/09 12:43:52;;;;;;;5.53;2.63;;;22.80;42.00;;;;;;5044329;28;20025;-59
2022/02/09 12:46:20;;;;;;;5.28;3.00;;;22.80;42.00;;;;;;5041504;28;20044;-58
2022/02/09 12:48:49;;;;;;;7.10;2.55;;;22.90;41.90;;;;;;5047620;28;20037;-58
2022/02/09 12:51:27;;;;;;;4.07;2.70;;;22.90;41.90;;;;;;5041871;28;20126;-59
2022/02/09 12:53:55;;;;;;;8.35;2.95;;;23.00;41.80;;;;;;5045057;28;20041;-59
2022/02/09 12:56:26;;;;;;;4.60;2.00;;;23.00;41.80;;;;;;5048665;28;20127;-59
2022/02/09 12:59:02;;;;;;;2.90;2.13;;;23.10;41.70;;;;;;5047197;28;20120;-57
2022/02/09 13:01:41;;;;;;;6.25;2.08;;;23.10;41.70;;;;;;5047336;28;20061;-58
2022/02/09 13:04:08;;;;;;;7.43;2.97;;;23.20;41.80;;;;;;5047305;28;20060;-59
2022/02/09 13:06:35;;;;;;;3.67;1.58;;;23.20;41.70;;;;;;5047750;28;20053;-60
2022/02/09 13:09:03;;;;;;;5.20;2.47;;;23.20;41.50;;;;;;5047054;28;20603;-59
2022/02/09 13:11:34;;;;;;;4.28;1.80;;;23.30;41.50;;;;;;5047772;28;20079;-60
2022/02/09 13:14:08;;;;;;;9.85;1.67;;;23.30;41.40;;;;;;5047318;28;20051;-60
2022/02/09 13:16:57;;;;;;;4.55;2.55;;;23.40;41.40;;;;;;5046623;28;20565;-60
2022/02/09 13:22:44;;;;;;;11.73;2.38;;;23.40;41.30;;;;;;5103473;27;20399;-60
2022/02/09 14:11:05;;;;;;;7.32;5.38;;;24.30;40.30;;;;;;5085385;28;20047;-63
2022/02/09 14:13:53;;;;;;;4.85;4.43;;;24.30;40.30;;;;;;5086083;28;20068;-61
2022/02/09 14:16:41;;;;;;;6.10;4.68;;;24.40;40.30;;;;;;5087737;28;20040;-61
2022/02/09 14:19:32;;;;;;;6.18;3.47;;;24.40;40.20;;;;;;5086891;28;20032;-61
2022/02/09 14:47:07;;;;;;;6.55;2.47;;;24.60;39.80;;;;;;5026658;28;19925;-60
2022/02/09 14:52:36;;;;;;;3.10;2.47;;;24.80;39.30;;;;;;4906365;29;20150;-60
2022/02/09 14:55:18;;;;;;;3.90;2.38;;;24.90;39.30;;;;;;4901478;29;20103;-59
2022/02/09 14:57:59;;;;;;;5.65;2.13;;;24.90;39.20;;;;;;4902657;29;20561;-60
2022/02/09 15:00:26;;;;;;;4.40;2.28;;;24.90;39.10;;;;;;4897125;29;20054;-60
2022/02/09 15:03:03;;;;;;;3.97;2.03;;;24.90;39.00;;;;;;4930985;28;20055;-61
2022/02/09 15:08:23;;;;;;;3.45;2.00;;;25.00;38.90;;;;;;4940075;28;20051;-59
2022/02/09 15:11:03;;;;;;;4.43;1.65;;;25.00;38.80;;;;;;4940806;28;20055;-60
2022/02/09 15:13:38;;;;;;;5.05;2.53;;;25.00;38.80;;;;;;4945817;28;20043;-60
2022/02/09 15:16:13;;;;;;;5.30;2.50;;;25.10;38.70;;;;;;4944208;28;20475;-60
2022/02/09 15:21:59;;;;;;;2.45;1.42;;;25.00;38.60;;;;;;4967720;28;20313;-60
2022/02/09 15:24:30;;;;;;;4.07;1.33;;;25.00;38.50;;;;;;4964086;28;20225;-60
2022/02/09 15:27:00;;;;;;;2.63;1.00;;;25.00;38.60;;;;;;4968204;28;20047;-59
2022/02/09 15:29:27;;;;;;;2.60;1.50;;;25.00;38.50;;;;;;4978820;28;20050;-60
2022/02/09 15:31:59;;;;;;;3.78;1.48;;;24.90;38.40;;;;;;4990766;28;20133;-60
2022/02/09 15:34:30;;;;;;;2.17;1.02;;;24.90;38.40;;;;;;4979291;28;20045;-60
2022/02/09 15:37:08;;;;;;;5.93;1.13;;;24.90;38.40;;;;;;4992532;28;20161;-60
2022/02/09 15:39:40;;;;;;;1.50;1.23;;;24.90;38.40;;;;;;4996795;28;20061;-61
2022/02/09 16:07:53;;;;;;;1.52;0.90;;;24.60;38.10;;;;;;5050165;28;20037;-60
2022/02/09 16:10:00;;;;;;;4.70;1.20;;;24.50;38.00;;;;;;5043206;28;20122;-60
2022/02/09 16:23:41;;;;;;;4.93;1.25;;;24.30;37.90;;;;;;4990833;28;20072;-57
2022/02/09 16:35:07;;;;;;;2.38;0.80;;;24.20;37.90;;;;;;4989624;28;20073;-59
2022/02/09 16:48:28;;;;;;;3.92;0.55;;;23.80;37.90;;;;;;4951654;28;20145;-59
2022/02/09 16:50:56;;;;;;;1.30;0.55;;;23.80;38.00;;;;;;4963641;28;20142;-60
2022/02/09 16:53:38;;;;;;;1.27;0.98;;;23.70;38.00;;;;;;4967593;28;20059;-60
2022/02/09 16:56:26;;;;;;;1.17;0.85;;;23.70;38.10;;;;;;5005284;28;20049;-59
2022/02/09 17:21:00;;;;;;;2.38;0.85;;;23.10;38.60;;;;;;5046986;28;20130;-60
2022/02/09 17:23:27;;;;;;;1.75;0.85;;;23.10;38.70;;;;;;5047740;28;20045;-59
2022/02/09 17:25:54;;;;;;;2.05;0.45;;;23.00;38.70;;;;;;5045736;28;20406;-60
2022/02/09 17:28:23;;;;;;;0.57;0.40;;;23.00;38.80;;;;;;5049135;28;20041;-60
2022/02/09 17:31:03;;;;;;;1.48;0.90;;;22.90;38.80;;;;;;5044191;28;20041;-59
2022/02/09 17:36:38;;;;;;;2.22;0.43;;;22.80;38.90;;;;;;4986770;28;20089;-60
2022/02/09 17:39:21;;;;;;;1.27;0.40;;;22.80;39.00;;;;;;5008623;28;20634;-59
2022/02/09 17:55:55;;;;;;;1.35;0.63;;;22.50;39.40;;;;;;5042920;28;20036;-61
2022/02/09 17:58:27;;;;;;;1.27;0.63;;;22.40;39.50;;;;;;5047915;28;20150;-59
2022/02/09 18:00:56;;;;;;;1.00;0.30;;;22.40;39.50;;;;;;5042483;28;20551;-61
2022/02/09 18:03:24;;;;;;;2.65;0.40;;;22.40;39.60;;;;;;5046844;28;20044;-59
2022/02/09 18:05:54;;;;;;;2.22;0.40;;;22.30;39.50;;;;;;5048612;28;20586;-59
2022/02/09 18:08:28;;;;;;;1.77;0.50;;;22.30;39.60;;;;;;5047571;28;20485;-61
2022/02/09 18:11:07;;;;;;;1.20;0.30;;;22.30;39.60;;;;;;5052327;28;20073;-60
2022/02/09 18:29:59;;;;;;;2.30;0.88;;;22.10;39.90;;;;;;5049959;28;20053;-60
2022/02/09 18:43:23;;;;;;;1.95;0.50;;;21.90;40.00;;;;;;5009677;28;20080;-60
2022/02/09 18:45:58;;;;;;;2.35;0.68;;;22.00;40.10;;;;;;5007018;28;20169;-60
2022/02/09 18:48:51;;;;;;;3.38;1.10;;;21.90;40.10;;;;;;5012517;28;20544;-60
2022/02/09 18:57:03;;;;;;;1.00;0.68;;;21.90;40.20;;;;;;5037366;28;20080;-59
2022/02/09 19:02:37;;;;;;;2.45;0.68;;;21.80;40.20;;;;;;5032007;28;20059;-60
2022/02/09 19:05:20;;;;;;;2.13;0.55;;;21.80;40.30;;;;;;5049087;28;20041;-59
2022/02/09 19:08:15;;;;;;;1.00;0.75;;;21.80;40.30;;;;;;5046663;28;20037;-60
2022/02/09 19:19:22;;;;;;;1.30;0.88;;;21.70;40.80;;;;;;5067223;28;20040;-59
2022/02/09 19:28:40;;;;;;;1.73;0.73;;;21.60;40.50;;;;;;4945884;28;20390;-57
2022/02/09 19:30:48;;;;;;;2.05;1.27;;;21.60;40.60;;;;;;4943780;29;20039;-59
2022/02/09 19:40:28;;;;;;;2.55;1.20;;;21.50;40.60;;;;;;4945584;29;20102;-60
2022/02/09 19:47:44;;;;;;;4.75;1.15;;;21.40;40.80;;;;;;5079618;27;20913;-60
2022/02/09 19:50:27;;;;;;;1.52;0.82;;;21.40;40.70;;;;;;5065575;28;20047;-59
2022/02/09 19:53:10;;;;;;;3.05;1.17;;;21.40;40.80;;;;;;5059814;28;20051;-59
2022/02/09 19:55:39;;;;;;;2.03;1.85;;;21.40;40.80;;;;;;5067363;28;20496;-59
2022/02/09 19:58:09;;;;;;;3.65;1.17;;;21.40;40.80;;;;;;5074463;28;20040;-59
2022/02/09 20:00:38;;;;;;;2.72;1.65;;;21.40;40.90;;;;;;5076293;28;20497;-58
2022/02/09 20:03:08;;;;;;;1.88;0.98;;;21.40;40.90;;;;;;5060487;28;20041;-58
2022/02/09 20:05:36;;;;;;;2.40;1.17;;;21.40;40.90;;;;;;5076426;28;20044;-59
2022/02/09 20:08:06;;;;;;;5.03;1.77;;;21.40;40.90;;;;;;5063728;28;20048;-59
2022/02/09 20:10:34;;;;;;;2.67;1.20;;;21.40;41.00;;;;;;5054361;28;20051;-60
2022/02/09 20:13:01;;;;;;;3.30;1.17;;;21.40;41.00;;;;;;5061711;28;20137;-59
2022/02/09 20:15:29;;;;;;;3.65;1.10;;;21.40;41.00;;;;;;5076033;28;20417;-58
2022/02/09 20:17:57;;;;;;;6.82;2.10;;;21.40;41.10;;;;;;5059796;28;20440;-58
2022/02/09 20:20:28;;;;;;;2.65;2.15;;;21.30;41.10;;;;;;5049689;28;20048;-59
2022/02/09 20:22:58;;;;;;;5.50;2.03;;;21.30;41.10;;;;;;5069273;28;20153;-59
2022/02/09 20:25:27;;;;;;;3.47;1.30;;;21.30;41.20;;;;;;5071484;28;20044;-59
2022/02/09 20:27:56;;;;;;;7.72;1.80;;;21.30;41.10;;;;;;5064151;28;20674;-59
2022/02/09 20:30:28;;;;;;;2.47;1.48;;;21.30;41.20;;;;;;5060458;28;20139;-58
2022/02/09 20:33:00;;;;;;;4.85;2.25;;;21.30;41.20;;;;;;5077533;28;20064;-58
2022/02/09 20:35:29;;;;;;;4.07;1.75;;;21.30;41.20;;;;;;5067279;28;20580;-57
2022/02/09 20:37:57;;;;;;;4.13;1.67;;;21.30;41.50;;;;;;5070852;28;20064;-59
2022/02/09 20:40:27;;;;;;;4.88;2.05;;;21.30;41.30;;;;;;5071343;28;20057;-58
2022/02/09 20:42:57;;;;;;;6.40;2.92;;;21.30;41.30;;;;;;5064867;28;20589;-60
2022/02/09 20:45:30;;;;;;;4.43;2.30;;;21.20;41.30;;;;;;5060210;28;20052;-59
2022/02/09 20:48:02;;;;;;;4.30;1.70;;;21.20;41.30;;;;;;5076792;28;20032;-59
2022/02/09 20:50:32;;;;;;;2.40;1.65;;;21.20;41.30;;;;;;5063626;28;20819;-59
2022/02/09 20:52:59;;;;;;;3.72;1.90;;;21.20;41.30;;;;;;5059623;28;20064;-59
2022/02/09 20:55:29;;;;;;;3.67;2.10;;;21.20;41.30;;;;;;5064620;28;20113;-59
2022/02/09 20:57:57;;;;;;;4.25;2.30;;;21.20;41.40;;;;;;5065937;28;20036;-61
2022/02/09 21:00:36;;;;;;;3.65;1.95;;;21.20;41.30;;;;;;5045812;28;20044;-59
2022/02/09 21:03:16;;;;;;;3.35;1.75;;;21.20;41.40;;;;;;5046355;28;20052;-59
2022/02/09 21:05:55;;;;;;;4.43;1.45;;;21.10;41.30;;;;;;5059888;28;20036;-58
2022/02/09 21:08:43;;;;;;;4.20;1.70;;;21.20;41.40;;;;;;5052748;28;20134;-60
2022/02/09 21:11:18;;;;;;;3.78;1.70;;;21.10;41.40;;;;;;5051243;28;20040;-58
2022/02/09 21:13:53;;;;;;;4.53;1.80;;;21.10;41.40;;;;;;5053816;28;20143;-59
2022/02/09 21:16:41;;;;;;;4.97;2.15;;;21.10;41.40;;;;;;5044462;28;20048;-59
2022/02/09 21:19:35;;;;;;;4.80;2.20;;;21.10;41.40;;;;;;5047003;28;20036;-60
2022/02/09 21:45:13;;;;;;;3.65;1.70;;;21.00;41.70;;;;;;4889078;29;20099;-58
2022/02/09 21:53:47;;;;;;;2.30;1.42;;;20.90;41.70;;;;;;4893644;29;20048;-59
2022/02/09 21:56:21;;;;;;;3.13;1.80;;;20.90;41.70;;;;;;4898527;29;20561;-59
2022/02/09 21:59:00;;;;;;;2.13;1.88;;;20.90;41.70;;;;;;4894713;29;20100;-59
2022/02/09 22:01:50;;;;;;;2.75;1.55;;;20.90;41.70;;;;;;4907651;28;20047;-57
2022/02/09 22:21:15;;;;;;;2.67;2.47;;;20.80;41.80;;;;;;4906187;29;20142;-58
2022/02/09 22:26:41;;;;;;;2.80;1.73;;;20.80;41.80;;;;;;4909197;29;20433;-58
2022/02/09 22:29:24;;;;;;;2.33;1.73;;;20.80;41.90;;;;;;4931581;29;20071;-58
2022/02/09 22:32:10;;;;;;;3.80;1.55;;;20.80;41.90;;;;;;4931686;29;20192;-59
2022/02/09 22:45:28;;;;;;;2.92;1.08;;;20.80;41.90;;;;;;4924524;29;20070;-58
2022/02/09 22:46:24;;;;;;;2.20;1.67;;;20.80;41.90;;;;;;4982943;28;20625;-58
2022/02/09 22:49:02;;;;;;;3.92;1.63;;;20.70;41.90;;;;;;5059616;28;20888;-58
2022/02/09 22:56:55;;;;;;;4.53;2.67;;;20.70;41.90;;;;;;5059586;28;20048;-59
2022/02/09 22:59:29;;;;;;;3.35;2.30;;;20.70;41.90;;;;;;5050482;28;20557;-59
2022/02/09 23:02:02;;;;;;;5.10;2.20;;;20.70;41.90;;;;;;5054639;28;20047;-59
2022/02/09 23:04:38;;;;;;;3.92;2.17;;;20.70;41.90;;;;;;5054198;28;20037;-58
2022/02/09 23:07:14;;;;;;;4.63;1.63;;;20.70;41.80;;;;;;5048308;28;20131;-59
2022/02/09 23:09:53;;;;;;;2.85;1.75;;;20.70;41.90;;;;;;5044405;28;20485;-59
2022/02/09 23:12:29;;;;;;;2.33;2.13;;;20.70;41.80;;;;;;5044179;28;20037;-60
2022/02/09 23:15:14;;;;;;;4.72;1.85;;;20.70;41.80;;;;;;5043176;28;20044;-58
2022/02/09 23:57:00;;;;;;;2.65;2.03;;;20.70;41.90;;;;;;5049552;28;20057;-57
